Aviation Digital Data Service (ADDS)

Output produced by METARs form (2259 UTC 23 May 2022)
found at http://www.aviationweather.gov/metar/data/
 
LKCV 232230Z 16009KT 9999 -SHRA FEW025 OVC060 16/12 Q1006 NOSIG RMK BLU BLU
TAF LKCV 231700Z 2318/2418 15012KT CAVOK 
     BECMG 2319/2322 BKN030 
     TEMPO 2321/2409 5000 SHRA BKN010 BKN020TCU 
     PROB30 
     TEMPO 2321/2403 SCT020CB 
     BECMG 2406/2408 21008KT 
     TEMPO 2409/2418 26015KT 7000 SHRA BKN025TCU 
     PROB40 
     TEMPO 2410/2418 32015G28KT 4000 TSRA SCT020CB
       
LKKV 232200Z 27004KT CAVOK 16/11 Q1005
TAF LKKV 231700Z 2318/2500 13010KT CAVOK 
     TEMPO 2321/2418 20012G24KT 
     BECMG 2318/2319 9999 BKN035 
     TEMPO 2319/2401 6000 SHRA SCT020TCU BKN030 
     PROB40 
     TEMPO 2321/2401 2000 TSRA SCT009CB BKN013 
     PROB30 
     TEMPO 2410/2416 7000 SHRA SCT020TCU BKN027
       
LKKB 232200Z 16009KT CAVOK 18/10 Q1005
TAF LKKB 231700Z 2318/2418 14012KT CAVOK 
     BECMG 2320/2322 21008KT 
     TEMPO 2320/2404 21014KT 8000 SHRA SCT025TCU BKN030 
     PROB30 
     TEMPO 2323/2404 23016G28KT 4000 TSRA SCT015CB BKN025 
     BECMG 2406/2408 BKN035 
     TEMPO 2411/2418 8000 SHRA SCT025TCU BKN030
       
LKKU 231800Z 15006KT CAVOK 18/09 Q1008
LKLN 232200Z AUTO 20004KT 170V230 9999 -RA OVC095 17/13 Q1004
LKMT 232230Z 00000KT CAVOK 10/08 Q1008 NOSIG
TAF LKMT 231700Z 2318/2500 VRB02KT CAVOK 
     BECMG 2400/2402 9999 BKN040 
     BECMG 2403/2406 24010KT 
     TEMPO 2404/2415 7000 SHRA SCT023TCU BKN033
       
LKNA 232230Z 13008KT 9999 -RA NSC 16/08 Q1008 RMK BLU
TAF LKNA 231700Z 2318/2418 13008KT CAVOK 
     TEMPO 2318/2322 15018KT 
     BECMG 2322/2400 BKN040 
     TEMPO 2323/2418 7000 SHRA SCT025TCU BKN035 
     PROB30 2403/2408 5000 BR BKN007 
     BECMG 2405/2407 18005KT
       
LKPD 232230Z 09006KT CAVOK 16/09 Q1007 RMK BLU
TAF LKPD 231700Z 2318/2418 12006KT CAVOK 
     BECMG 2319/2322 BKN030 
     TEMPO 2321/2409 20010KT 6000 SHRA BKN010 BKN022TCU 
     TEMPO 2409/2418 30013KT 7000 SHRA BKN024TCU 
     BECMG 2410/2412 27008KT 
     PROB40 
     TEMPO 2410/2418 30016G26KT 4000 TSRA BKN020CB
       
LKPR 232230Z 16010KT CAVOK 17/10 Q1004 NOSIG
TAF LKPR 231700Z 2318/2500 15008KT CAVOK 
     BECMG 2322/2323 9999 BKN040 
     BECMG 2323/2400 24010KT 
     TEMPO 2400/2418 24012G26KT 
     TEMPO 2323/2402 9000 SHRA SCT025TCU BKN030 
     PROB30 
     TEMPO 2323/2402 3000 TSRA SCT013CB BKN014 
     TEMPO 2413/2416 7000 SHRA SCT025TCU BKN030 
     BECMG 2421/2422 4000 RA BKN013
       
LKTB 232230Z 10006KT CAVOK 16/08 Q1007 NOSIG
TAF LKTB 231700Z 2318/2500 09008KT CAVOK 
     BECMG 2323/2400 9999 BKN040 
     TEMPO 2402/2415 7000 SHRA SCT023TCU BKN033